createdAt,value
2019-01-24T13:53:48.463Z,96373.00
2019-01-24T13:56:43.056Z,96359.00
2019-01-24T13:59:37.922Z,96360.00
2019-01-24T14:02:33.035Z,96368.00
2019-01-24T14:05:29.283Z,96358.00
2019-01-24T14:08:24.382Z,96372.00
2019-01-24T14:11:19.211Z,96379.00
2019-01-24T14:14:13.920Z,96354.00
2019-01-24T14:17:08.556Z,96368.00
2019-01-24T14:20:03.490Z,96344.00
2019-01-24T14:22:58.319Z,96358.00
2019-01-24T14:25:53.232Z,96357.00
2019-01-24T14:28:48.086Z,96361.00
2019-01-24T14:31:42.616Z,96358.00
2019-01-24T14:34:37.279Z,96356.00
2019-01-24T14:37:31.862Z,96355.00
2019-01-24T14:40:26.674Z,96350.00
2019-01-24T14:43:23.142Z,96344.00
2019-01-24T14:46:17.802Z,96340.00
2019-01-24T16:28:24.800Z,96382.00
2019-01-24T16:31:19.839Z,96366.00
2019-01-24T16:34:14.779Z,96354.00
2019-01-24T16:37:09.684Z,96369.00
2019-01-24T16:40:04.657Z,96373.00
2019-01-24T16:42:59.362Z,96380.00
2019-01-24T16:45:54.318Z,96370.00
2019-01-24T16:48:49.057Z,96372.00
2019-01-24T16:51:43.718Z,96379.00
2019-01-24T16:54:39.783Z,96373.00
2019-01-24T16:57:34.963Z,96377.00
2019-01-24T17:00:34.307Z,96377.00
2019-01-24T17:03:28.626Z,96361.00
2019-01-24T17:06:22.983Z,96374.00
2019-01-24T17:09:17.408Z,96383.00
2019-01-24T17:12:12.587Z,96374.00
2019-01-24T17:15:08.175Z,96382.00
2019-01-24T17:18:02.796Z,96375.00
2019-01-24T17:20:57.709Z,96381.00
2019-01-24T17:23:52.313Z,96379.00
2019-01-24T17:26:47.436Z,96378.00
2019-01-24T17:29:42.111Z,96384.00
2019-01-24T17:32:36.708Z,96392.00
2019-01-24T17:35:31.047Z,96399.00
2019-01-24T17:38:25.809Z,96389.00
2019-01-24T17:41:21.851Z,96401.00
2019-01-24T17:44:18.449Z,96400.00
2019-01-24T17:47:13.845Z,96401.00
2019-01-24T17:50:10.127Z,96406.00
2019-01-24T17:53:05.126Z,96399.00
2019-01-24T17:56:00.047Z,96401.00
2019-01-24T17:58:54.692Z,96397.00
2019-01-24T18:01:49.346Z,96415.00
2019-01-24T18:04:44.166Z,96413.00
2019-01-24T18:07:39.153Z,96416.00
2019-01-24T18:10:33.828Z,96416.00
2019-01-24T18:13:28.419Z,96407.00
2019-01-24T18:16:23.536Z,96407.00
2019-01-24T18:19:18.110Z,96413.00
2019-01-24T18:22:13.123Z,96418.00
2019-01-24T18:25:08.027Z,96413.00
2019-01-24T18:28:02.804Z,96417.00
2019-01-24T18:30:57.469Z,96401.00
2019-01-24T18:33:51.788Z,96408.00
2019-01-24T18:36:46.362Z,96397.00
2019-01-24T18:39:41.207Z,96404.00
2019-01-24T18:42:36.287Z,96414.00
2019-01-24T18:45:45.145Z,96416.00
2019-01-24T18:48:39.806Z,96418.00
2019-01-24T18:51:34.539Z,96419.00
2019-01-24T18:54:29.383Z,96413.00
2019-01-24T18:57:24.165Z,96402.00
2019-01-24T19:00:27.928Z,96403.00
2019-01-24T19:03:22.381Z,96410.00
2019-01-24T19:06:17.852Z,96401.00
2019-01-24T19:09:12.356Z,96405.00
2019-01-24T19:12:07.207Z,96406.00
2019-01-24T19:15:02.052Z,96400.00
2019-01-24T19:17:56.753Z,96389.00
2019-01-24T19:20:52.202Z,96400.00
2019-01-24T19:23:46.725Z,96411.00
2019-01-24T19:26:41.660Z,96412.00
2019-01-24T19:29:36.354Z,96403.00
2019-01-24T19:32:31.369Z,96416.00
2019-01-24T19:35:26.141Z,96413.00
2019-01-24T19:38:21.132Z,96416.00
2019-01-24T19:41:15.833Z,96415.00
2019-01-24T19:44:15.643Z,96416.00
2019-01-24T19:47:06.507Z,96411.00
2019-01-24T19:50:01.231Z,96420.00
2019-01-24T19:52:55.990Z,96422.00
2019-01-24T19:55:51.605Z,96418.00
2019-01-24T19:58:46.559Z,96410.00
2019-01-24T20:01:40.913Z,96410.00
2019-01-24T20:04:35.638Z,96413.00
2019-01-24T20:07:30.584Z,96424.00
2019-01-24T20:10:27.388Z,96417.00
2019-01-24T20:13:22.233Z,96424.00
2019-01-24T20:16:17.109Z,96416.00
2019-01-24T20:19:11.943Z,96419.00
2019-01-24T20:22:07.758Z,96423.00
2019-01-24T20:25:02.287Z,96428.00
2019-01-24T20:27:56.936Z,96432.00
2019-01-24T20:30:51.783Z,96434.00
2019-01-24T20:33:46.476Z,96426.00
2019-01-24T20:36:41.219Z,96432.00
2019-01-24T20:39:35.756Z,96426.00
2019-01-24T20:42:30.529Z,96424.00
2019-01-24T20:45:25.096Z,96425.00
2019-01-24T20:48:20.188Z,96421.00
2019-01-24T20:51:15.137Z,96422.00
2019-01-24T20:54:09.980Z,96425.00
2019-01-24T20:57:05.014Z,96429.00
2019-01-24T20:59:59.281Z,96424.00
2019-01-24T21:02:54.656Z,96423.00
2019-01-24T21:05:49.225Z,96432.00
2019-01-24T21:08:43.551Z,96432.00
2019-01-24T21:11:38.372Z,96429.00
2019-01-24T21:14:33.300Z,96424.00
2019-01-24T21:17:28.276Z,96416.00
2019-01-24T21:20:25.386Z,96430.00
2019-01-24T21:23:19.745Z,96423.00
2019-01-24T21:26:14.624Z,96423.00
2019-01-24T21:29:08.923Z,96423.00
2019-01-24T21:32:03.769Z,96430.00
2019-01-24T21:34:58.649Z,96421.00
